Aeroporto :
LOGIN :

Iscrizione | Disclaimer

   EN    FR    IT 

 










Sommario :    VFR   VFR Marginale   IFR   IFR Intensivo   IFR Molto Intensivo
Visibilità : 
Base nubi : 
>= 8 km
>= 3000ft
5 / 8 km
1000 / 3000 ft
1500m / 5 km
500 / 1000 ft
800 / 1500m
200 / 500 ft
< 800m
< 200 ft
Simboli :   Temporali  Nebbia  Neve Forte  Precipitazioni Forti  Vento > 20 kt
SIGMETs :   Varie  Temporali  Ghiacco  Turbolenza  Onda orograficha  Ceneri Vulcaniche






- Altitudine del aeroporto : 353 ft
- Codice IATA : CND


LRCK - Constanta

ULTIMO METAR :
  • 071000Z 05016KT CAVOK 15/M10 Q1034 NOSIG

METARs OBSOLETI :
  • 070930Z 03016KT CAVOK 15/M09 Q1034 NOSIG
  • 070900Z 04015KT CAVOK 14/M09 Q1034 NOSIG
  • 070830Z 04015KT CAVOK 14/M09 Q1035 NOSIG
  • 070800Z 04015KT CAVOK 14/M08 Q1035 NOSIG
  • 070730Z 03014KT CAVOK 13/M09 Q1035 NOSIG

TAF TAF LRCK
Valido dal 07 a 06 ore il 08 a 06 ore UTC


070500Z 0706/0806 02010KT CAVOK
BECMG 0709/0711 08018KT
BECMG 0716/0719 02008KT



MetMap, La meteo Aeronautica in un colpo d'occhio ! - Copyright ORBIFLY Dicembre 2007 - Disclaimer

ORBIFLY MET'MAP TEAM :

Programmazione e sviluppo : Alexandra Zaïnal
Concezione : Baudouin d'Aumeries
Aiuto per la programmazione : Marc-Olivier Méhu
Supporto tecnico e logistico : Manuel Goepfert
Aiuto per la traduzione : Arnaldo La Scala

Contatto : metmap@orbifly.com




FONTI E CREDITI :

   NOAA